Time;durP1;ratioP1;P1;durP2;ratioP2;P2;SDS_P1;SDS_P2;PMS_P1;PMS_P2;Temp;Humidity;BMP_temperature;BMP_pressure;BME280_temperature;BME280_humidity;BME280_pressure;Samples;Min_cycle;Max_cycle;Signal;HPM_P1;HPM_P2
2021/09/15 00:00:26;;;;;;;13.80;12.50;;;22.20;99.90;;;;;;8259969;28;20192;-80
2021/09/15 00:04:26;;;;;;;14.70;13.23;;;22.20;99.90;;;;;;8260056;28;20213;-79
2021/09/15 00:08:27;;;;;;;16.27;14.13;;;22.20;99.90;;;;;;8267881;28;20296;-79
2021/09/15 00:12:28;;;;;;;18.43;13.37;;;22.20;99.90;;;;;;8268016;28;20213;-82
2021/09/15 00:16:29;;;;;;;13.13;11.73;;;22.20;99.90;;;;;;8283124;28;20191;-80
2021/09/15 00:20:32;;;;;;;20.07;13.67;;;22.10;99.90;;;;;;8264063;28;20576;-84
2021/09/15 00:24:33;;;;;;;16.03;12.07;;;22.20;99.90;;;;;;8302102;28;20446;-82
2021/09/15 00:28:34;;;;;;;13.53;12.10;;;22.20;99.90;;;;;;8262001;28;20462;-81
2021/09/15 00:32:34;;;;;;;16.10;12.17;;;22.20;99.90;;;;;;8264108;28;20223;-82
2021/09/15 00:36:35;;;;;;;19.47;13.60;;;22.20;99.90;;;;;;8291193;28;20688;-80
2021/09/15 00:40:35;;;;;;;14.80;13.40;;;22.10;99.90;;;;;;8265277;28;20187;-83
2021/09/15 00:44:36;;;;;;;15.60;13.53;;;22.20;99.90;;;;;;8264368;28;20197;-80
2021/09/15 00:48:37;;;;;;;14.33;12.93;;;22.20;99.90;;;;;;8261762;28;20709;-84
2021/09/15 00:52:37;;;;;;;15.23;13.80;;;22.10;99.90;;;;;;8285150;28;20215;-81
2021/09/15 00:56:39;;;;;;;16.80;13.47;;;22.20;99.90;;;;;;8261571;28;20196;-81
2021/09/15 01:00:39;;;;;;;22.70;14.33;;;22.10;99.90;;;;;;8258084;28;20197;-80
2021/09/15 01:04:40;;;;;;;18.27;16.00;;;22.10;99.90;;;;;;8253020;28;20554;-83
2021/09/15 01:08:41;;;;;;;22.80;14.70;;;22.10;99.90;;;;;;8263807;28;20206;-82
2021/09/15 01:12:42;;;;;;;21.93;14.97;;;22.00;99.90;;;;;;8277863;28;20217;-81
2021/09/15 01:17:02;;;;;;;17.13;15.37;;;22.00;99.90;;;;;;8265926;28;20208;-80
2021/09/15 01:21:06;;;;;;;17.50;15.77;;;21.90;99.90;;;;;;8257360;28;20927;-81
2021/09/15 01:25:07;;;;;;;19.30;15.63;;;21.90;99.90;;;;;;8280045;28;20434;-80
2021/09/15 01:29:16;;;;;;;15.13;13.43;;;21.80;99.90;;;;;;8260538;28;21118;-81
2021/09/15 01:33:18;;;;;;;17.80;15.00;;;21.80;99.90;;;;;;8260268;28;20209;-82
2021/09/15 01:37:19;;;;;;;18.17;14.07;;;21.80;99.90;;;;;;8278953;28;20442;-81
2021/09/15 01:41:20;;;;;;;14.03;12.23;;;21.80;99.90;;;;;;8263725;28;20482;-79
2021/09/15 01:45:21;;;;;;;14.97;12.87;;;21.80;99.90;;;;;;8261843;28;20449;-80
2021/09/15 01:49:21;;;;;;;14.67;12.50;;;21.80;99.90;;;;;;8259734;28;20238;-80
2021/09/15 01:53:22;;;;;;;18.07;13.47;;;21.80;99.90;;;;;;8257393;28;20239;-84
2021/09/15 01:57:22;;;;;;;15.40;13.80;;;21.80;99.90;;;;;;8276517;28;20283;-82
2021/09/15 02:01:23;;;;;;;16.40;12.80;;;21.80;99.90;;;;;;8265551;28;20198;-81
2021/09/15 02:05:24;;;;;;;17.63;14.20;;;21.70;99.90;;;;;;8269460;28;20201;-82
2021/09/15 02:09:24;;;;;;;18.50;13.00;;;21.80;99.90;;;;;;8268684;28;20193;-82
2021/09/15 02:13:25;;;;;;;17.03;13.60;;;21.70;99.90;;;;;;8260158;28;21060;-82
2021/09/15 02:17:25;;;;;;;20.00;12.67;;;21.70;99.90;;;;;;8262557;28;20219;-81
2021/09/15 02:21:26;;;;;;;19.70;15.90;;;21.70;99.90;;;;;;8262934;28;20198;-83
2021/09/15 02:25:27;;;;;;;19.87;14.60;;;21.70;99.90;;;;;;8281128;28;20199;-83
2021/09/15 02:29:27;;;;;;;17.47;14.83;;;21.70;99.90;;;;;;8258666;28;20211;-80
2021/09/15 02:33:28;;;;;;;20.00;15.93;;;21.70;99.90;;;;;;8278894;28;20260;-83
2021/09/15 02:37:29;;;;;;;18.70;15.80;;;21.60;99.90;;;;;;8278184;28;20197;-81
2021/09/15 02:41:29;;;;;;;20.80;15.37;;;21.60;99.90;;;;;;8260644;28;20209;-82
2021/09/15 02:45:30;;;;;;;19.97;13.93;;;21.60;99.90;;;;;;8254282;28;20186;-83
2021/09/15 02:49:30;;;;;;;19.67;15.80;;;21.60;99.90;;;;;;8259084;28;20221;-84
2021/09/15 02:53:31;;;;;;;19.70;15.83;;;21.60;99.90;;;;;;8257020;28;20214;-84
2021/09/15 02:57:32;;;;;;;20.13;15.70;;;21.70;99.90;;;;;;8296461;28;20184;-83
2021/09/15 03:01:32;;;;;;;14.90;13.50;;;21.70;99.90;;;;;;8261052;28;22251;-83
2021/09/15 03:05:33;;;;;;;19.80;17.53;;;21.70;99.90;;;;;;8268879;28;20199;-80
2021/09/15 03:09:34;;;;;;;17.67;15.43;;;21.70;99.90;;;;;;8264359;28;20285;-85
2021/09/15 03:13:35;;;;;;;18.50;15.10;;;21.70;99.90;;;;;;8259711;28;20208;-82
2021/09/15 03:17:36;;;;;;;19.00;15.70;;;21.70;99.90;;;;;;8259162;28;21139;-81
2021/09/15 03:21:39;;;;;;;19.17;16.57;;;21.70;99.90;;;;;;8277034;28;20463;-85
2021/09/15 03:25:40;;;;;;;19.20;14.80;;;21.70;99.90;;;;;;8262351;28;20180;-83
2021/09/15 03:29:40;;;;;;;17.30;14.70;;;21.70;99.90;;;;;;8261922;28;20456;-85
2021/09/15 03:33:41;;;;;;;17.83;15.60;;;21.70;99.90;;;;;;8263687;28;20273;-84
2021/09/15 03:37:41;;;;;;;23.97;16.80;;;21.60;99.90;;;;;;8264141;28;20609;-86
2021/09/15 03:41:42;;;;;;;22.67;17.70;;;21.60;99.90;;;;;;8276246;28;20214;-86
2021/09/15 03:45:43;;;;;;;22.20;19.80;;;21.60;99.90;;;;;;8280249;28;20234;-86
2021/09/15 03:49:43;;;;;;;22.13;19.03;;;21.50;99.90;;;;;;8267993;28;20231;-84
2021/09/15 03:53:44;;;;;;;23.70;17.87;;;21.50;99.90;;;;;;8262626;28;20208;-84
2021/09/15 03:57:48;;;;;;;22.20;17.80;;;21.40;99.90;;;;;;8269412;28;20196;-84
2021/09/15 04:01:48;;;;;;;19.13;16.50;;;21.40;99.90;;;;;;8295465;28;20191;-84
2021/09/15 04:05:49;;;;;;;17.93;15.93;;;21.40;99.90;;;;;;8274445;28;20455;-83
2021/09/15 04:09:49;;;;;;;20.93;16.40;;;21.40;99.90;;;;;;8266540;28;20188;-82
2021/09/15 04:13:50;;;;;;;17.27;13.70;;;21.40;99.90;;;;;;8279298;28;20213;-82
2021/09/15 04:17:51;;;;;;;19.73;14.63;;;21.40;99.90;;;;;;8263722;28;20184;-84
2021/09/15 04:21:51;;;;;;;17.40;14.03;;;21.40;99.90;;;;;;8281253;28;20192;-84
2021/09/15 04:34:31;;;;;;;15.33;12.77;;;21.50;99.90;;;;;;8264322;28;20538;-84
2021/09/15 04:38:32;;;;;;;12.93;11.57;;;21.50;99.90;;;;;;8279242;28;20436;-87
2021/09/15 04:42:32;;;;;;;14.43;12.93;;;21.50;99.90;;;;;;8259113;28;20352;-86
2021/09/15 04:46:33;;;;;;;21.13;14.67;;;21.50;99.90;;;;;;8263966;28;20601;-86
2021/09/15 04:50:33;;;;;;;16.93;15.10;;;21.40;99.90;;;;;;8266448;28;20573;-88
2021/09/15 04:54:34;;;;;;;19.17;15.93;;;21.40;99.90;;;;;;8263661;28;20208;-87
2021/09/15 04:58:34;;;;;;;17.40;15.60;;;21.40;99.90;;;;;;8274343;28;20223;-87
2021/09/15 05:02:35;;;;;;;18.57;14.87;;;21.40;99.90;;;;;;8268393;28;20184;-85
2021/09/15 05:06:36;;;;;;;16.10;14.43;;;21.40;99.90;;;;;;8267768;28;20681;-86
2021/09/15 05:10:37;;;;;;;19.57;15.67;;;21.30;99.90;;;;;;8269841;28;20197;-87
2021/09/15 05:14:37;;;;;;;20.07;15.90;;;21.30;99.90;;;;;;8259143;28;20302;-87
2021/09/15 05:18:43;;;;;;;25.70;17.17;;;21.20;99.90;;;;;;8277979;28;20445;-85
2021/09/15 05:22:58;;;;;;;21.93;17.73;;;21.10;99.90;;;;;;8259083;28;20813;-86
2021/09/15 05:26:59;;;;;;;22.40;17.80;;;21.10;99.90;;;;;;8267581;28;20447;-85
2021/09/15 05:30:59;;;;;;;31.63;21.93;;;21.00;99.90;;;;;;8267595;28;20494;-88
2021/09/15 05:35:02;;;;;;;24.20;20.30;;;21.00;99.90;;;;;;8268019;28;20191;-88
2021/09/15 05:39:03;;;;;;;25.07;18.43;;;21.00;99.90;;;;;;8276199;28;20563;-88
2021/09/15 05:43:04;;;;;;;23.90;18.50;;;21.00;99.90;;;;;;8273404;28;20450;-85
2021/09/15 05:47:05;;;;;;;32.53;20.50;;;21.00;99.90;;;;;;8287028;28;20204;-88
2021/09/15 05:51:06;;;;;;;22.23;18.70;;;20.90;99.90;;;;;;8265163;28;21043;-86
2021/09/15 05:55:07;;;;;;;25.20;18.40;;;20.90;99.90;;;;;;8267057;28;20334;-85
2021/09/15 05:59:07;;;;;;;26.47;18.60;;;21.00;99.90;;;;;;8269025;28;20220;-87
2021/09/15 06:03:08;;;;;;;22.23;17.23;;;21.00;99.90;;;;;;8277909;28;20440;-85
2021/09/15 06:07:10;;;;;;;22.47;18.33;;;21.00;99.90;;;;;;8269534;28;20225;-87
2021/09/15 06:11:10;;;;;;;21.67;17.13;;;21.10;99.90;;;;;;8262120;28;20274;-87
2021/09/15 06:15:11;;;;;;;26.70;20.23;;;21.20;99.90;;;;;;8265351;28;20455;-87
2021/09/15 06:19:13;;;;;;;31.83;21.17;;;21.30;99.90;;;;;;8268465;28;20246;-85
2021/09/15 06:23:13;;;;;;;19.37;16.43;;;21.30;99.90;;;;;;8262076;28;20272;-86
2021/09/15 06:27:17;;;;;;;24.87;18.57;;;21.30;99.90;;;;;;8265260;28;20446;-85
2021/09/15 06:31:18;;;;;;;23.10;17.33;;;21.40;99.90;;;;;;8274739;28;20183;-86
2021/09/15 06:35:18;;;;;;;23.73;15.10;;;21.50;99.90;;;;;;8293101;28;20449;-86
2021/09/15 06:39:19;;;;;;;20.13;15.33;;;21.60;99.90;;;;;;8286506;28;20211;-85
2021/09/15 06:43:20;;;;;;;16.03;12.87;;;21.70;99.90;;;;;;8271492;28;20188;-86
2021/09/15 06:47:21;;;;;;;12.43;9.93;;;21.80;99.90;;;;;;8284014;28;20231;-86
2021/09/15 06:51:21;;;;;;;13.73;11.57;;;21.90;99.90;;;;;;8270305;28;21052;-88
2021/09/15 06:55:25;;;;;;;12.50;9.43;;;22.00;99.90;;;;;;8268663;28;20268;-88
2021/09/15 06:59:25;;;;;;;9.17;7.70;;;22.00;99.90;;;;;;8259613;28;20188;-86
2021/09/15 07:03:26;;;;;;;11.23;9.40;;;22.10;99.90;;;;;;8238371;28;20455;-84
2021/09/15 07:07:28;;;;;;;8.70;7.87;;;22.10;99.90;;;;;;8267546;28;20195;-84
2021/09/15 07:11:35;;;;;;;8.40;7.60;;;22.20;99.90;;;;;;8298677;28;20270;-84
2021/09/15 07:15:47;;;;;;;7.17;6.57;;;22.20;99.90;;;;;;8281849;28;20501;-83
2021/09/15 07:20:35;;;;;;;12.40;7.70;;;22.20;99.90;;;;;;8293452;28;20446;-84
2021/09/15 07:24:45;;;;;;;11.00;6.93;;;22.20;99.90;;;;;;8275328;28;20482;-85
2021/09/15 07:28:49;;;;;;;12.03;5.60;;;22.20;99.90;;;;;;8326655;28;20544;-85
2021/09/15 07:33:09;;;;;;;10.50;7.20;;;22.30;99.90;;;;;;8306740;28;20502;-85
2021/09/15 07:37:30;;;;;;;9.80;6.03;;;22.30;99.90;;;;;;8314684;28;20542;-84
2021/09/15 07:41:30;;;;;;;5.60;5.10;;;22.30;99.90;;;;;;8327025;28;20536;-85
2021/09/15 07:45:52;;;;;;;7.47;5.73;;;22.30;99.90;;;;;;8342977;28;20253;-82
2021/09/15 07:50:43;;;;;;;7.07;6.37;;;22.40;99.90;;;;;;8306175;28;20487;-84
2021/09/15 07:55:06;;;;;;;6.90;6.13;;;22.60;99.90;;;;;;8272643;28;20892;-84
2021/09/15 08:04:07;;;;;;;4.50;4.10;;;22.80;99.90;;;;;;8312739;28;20990;-82
2021/09/15 08:08:34;;;;;;;6.03;4.97;;;22.90;99.90;;;;;;8303647;28;20543;-85
2021/09/15 08:13:24;;;;;;;6.13;4.20;;;23.00;99.90;;;;;;8311415;28;20449;-80
2021/09/15 08:17:59;;;;;;;4.13;3.73;;;23.10;99.90;;;;;;8306871;28;20440;-81
2021/09/15 08:22:25;;;;;;;6.90;4.90;;;23.30;99.90;;;;;;8290278;28;20483;-80
2021/09/15 08:27:29;;;;;;;4.73;4.20;;;23.40;99.90;;;;;;8310863;28;20435;-82
2021/09/15 08:31:35;;;;;;;6.67;4.00;;;23.50;99.90;;;;;;8214413;28;20477;-82
2021/09/15 08:36:02;;;;;;;5.43;3.50;;;23.50;99.90;;;;;;8230996;28;20455;-82
2021/09/15 08:40:12;;;;;;;5.97;2.80;;;23.50;99.90;;;;;;8201794;28;20443;-81
2021/09/15 08:44:13;;;;;;;3.43;3.13;;;23.50;99.90;;;;;;8203158;28;20458;-82
2021/09/15 08:48:39;;;;;;;3.00;2.80;;;23.50;99.90;;;;;;8235067;28;20832;-82
2021/09/15 08:52:40;;;;;;;2.67;2.53;;;23.50;99.90;;;;;;8222293;28;20206;-84
2021/09/15 08:56:42;;;;;;;2.97;2.77;;;23.50;99.90;;;;;;8203209;28;20451;-84
2021/09/15 09:00:46;;;;;;;4.00;2.57;;;23.50;99.90;;;;;;8216749;28;20506;-85
2021/09/15 09:05:01;;;;;;;3.17;2.40;;;23.60;99.90;;;;;;8224774;28;20480;-84
2021/09/15 09:09:05;;;;;;;4.37;2.83;;;23.70;99.90;;;;;;8213918;28;20953;-88
2021/09/15 09:13:17;;;;;;;2.20;2.10;;;23.80;99.90;;;;;;8198245;28;20470;-81
2021/09/15 09:17:33;;;;;;;3.03;2.83;;;23.90;99.90;;;;;;8227525;28;20460;-85
2021/09/15 09:21:37;;;;;;;2.60;2.40;;;23.90;99.90;;;;;;8304345;28;20442;-83
2021/09/15 09:25:39;;;;;;;5.90;2.17;;;23.90;99.90;;;;;;8307627;28;20440;-84
2021/09/15 09:29:41;;;;;;;1.80;1.70;;;24.00;99.90;;;;;;8303109;28;20455;-82
2021/09/15 09:33:41;;;;;;;3.20;2.00;;;24.00;99.90;;;;;;8294987;28;20449;-84
2021/09/15 09:38:06;;;;;;;3.80;2.80;;;24.00;99.90;;;;;;8296577;28;20434;-84
2021/09/15 09:42:22;;;;;;;5.23;2.00;;;23.80;99.90;;;;;;8302695;28;20199;-84
2021/09/15 09:46:35;;;;;;;3.43;2.10;;;23.70;99.90;;;;;;8314031;28;20419;-84
2021/09/15 09:50:35;;;;;;;5.10;2.33;;;23.50;99.90;;;;;;8312589;28;20461;-86
2021/09/15 09:54:36;;;;;;;6.00;2.70;;;23.30;99.90;;;;;;8297829;28;20460;-86
2021/09/15 09:58:42;;;;;;;3.07;1.93;;;23.00;99.90;;;;;;8284564;28;20176;-87
2021/09/15 10:02:46;;;;;;;7.30;3.00;;;22.80;99.90;;;;;;8307355;28;20631;-88
2021/09/15 10:06:47;;;;;;;2.73;2.53;;;22.70;99.90;;;;;;8317791;28;20463;-86
2021/09/15 10:10:50;;;;;;;3.40;3.10;;;22.60;99.90;;;;;;8283222;28;20516;-86
2021/09/15 10:14:50;;;;;;;3.10;2.93;;;22.60;99.90;;;;;;8310585;28;20545;-86
2021/09/15 10:19:09;;;;;;;3.73;3.17;;;22.50;99.90;;;;;;8284010;28;20439;-86
2021/09/15 10:23:36;;;;;;;4.83;3.47;;;22.40;99.90;;;;;;8290439;28;20200;-88
2021/09/15 10:27:57;;;;;;;3.57;3.37;;;22.40;99.90;;;;;;8284301;28;21408;-87
2021/09/15 10:32:10;;;;;;;4.57;3.37;;;22.40;99.90;;;;;;8287729;28;20496;-90
2021/09/15 10:36:17;;;;;;;4.53;4.23;;;22.40;99.90;;;;;;8293168;28;20969;-90
2021/09/15 10:40:29;;;;;;;5.17;4.70;;;22.50;99.90;;;;;;8295449;28;20459;-87
2021/09/15 10:44:30;;;;;;;5.13;4.63;;;22.60;99.90;;;;;;8285845;28;20523;-86
2021/09/15 10:48:32;;;;;;;7.70;4.43;;;22.70;99.90;;;;;;8274472;28;20443;-88
2021/09/15 10:52:43;;;;;;;5.23;4.50;;;22.80;99.90;;;;;;8276966;28;20289;-88
2021/09/15 10:56:44;;;;;;;5.70;4.37;;;22.90;99.90;;;;;;8302031;28;20502;-92
2021/09/15 11:00:58;;;;;;;5.00;4.37;;;23.10;99.90;;;;;;8297498;28;20439;-88
2021/09/15 11:05:19;;;;;;;4.90;4.23;;;23.40;99.90;;;;;;8317620;28;20597;-88
2021/09/15 11:09:38;;;;;;;4.17;3.60;;;23.70;99.90;;;;;;8305841;28;20530;-88
2021/09/15 11:13:39;;;;;;;8.30;4.40;;;24.00;99.90;;;;;;8317081;28;20442;-86
2021/09/15 11:17:45;;;;;;;5.57;4.10;;;24.10;99.90;;;;;;8331639;28;20413;-87
2021/09/15 11:21:59;;;;;;;7.60;4.50;;;24.20;99.90;;;;;;8305184;28;20181;-84
2021/09/15 11:26:01;;;;;;;5.43;4.30;;;24.20;99.90;;;;;;8295748;28;21001;-85
2021/09/15 11:30:02;;;;;;;4.57;4.07;;;24.30;99.90;;;;;;8301684;28;20410;-87
2021/09/15 11:34:12;;;;;;;4.67;4.23;;;24.40;99.90;;;;;;8314709;28;20780;-87
2021/09/15 11:38:12;;;;;;;6.63;4.60;;;24.60;99.90;;;;;;8312225;28;20449;-85
2021/09/15 11:42:13;;;;;;;4.53;4.13;;;24.80;99.90;;;;;;8301212;28;20475;-84
2021/09/15 11:46:18;;;;;;;4.23;3.83;;;25.10;99.90;;;;;;8298854;28;20252;-84
2021/09/15 11:50:28;;;;;;;4.00;3.43;;;25.30;99.90;;;;;;8301216;28;20245;-90
2021/09/15 11:54:28;;;;;;;3.40;2.60;;;25.50;99.90;;;;;;8297311;28;20455;-85
2021/09/15 11:58:29;;;;;;;5.87;3.47;;;25.40;99.90;;;;;;8317966;28;20437;-86
2021/09/15 12:02:31;;;;;;;5.13;2.43;;;25.50;99.90;;;;;;8282888;28;20247;-85
2021/09/15 12:06:33;;;;;;;3.33;2.97;;;25.70;99.90;;;;;;8301741;28;20238;-86
2021/09/15 12:10:34;;;;;;;3.73;3.43;;;26.00;99.90;;;;;;8302923;28;20497;-86
2021/09/15 12:14:34;;;;;;;3.60;2.47;;;26.40;99.90;;;;;;8306347;28;20794;-85
2021/09/15 12:18:50;;;;;;;1.97;1.47;;;26.60;99.90;;;;;;8303087;28;22617;-82
2021/09/15 12:22:52;;;;;;;2.10;1.90;;;26.80;99.90;;;;;;8284091;28;20236;-83
2021/09/15 12:26:54;;;;;;;2.00;1.90;;;26.70;99.30;;;;;;8290701;28;20508;-84
2021/09/15 12:30:56;;;;;;;2.70;1.97;;;26.50;99.90;;;;;;8303970;28;20435;-85
2021/09/15 12:34:56;;;;;;;1.70;1.60;;;26.50;99.90;;;;;;8296054;28;20450;-85
2021/09/15 12:38:59;;;;;;;2.73;1.47;;;26.40;99.90;;;;;;8303025;28;20444;-83
2021/09/15 12:43:04;;;;;;;2.27;2.03;;;26.20;99.70;;;;;;8282551;28;20688;-86
2021/09/15 12:47:06;;;;;;;2.73;1.80;;;26.10;99.80;;;;;;8304329;28;20447;-84
2021/09/15 12:51:07;;;;;;;1.70;1.60;;;26.00;99.70;;;;;;8273509;28;20479;-85
2021/09/15 12:55:08;;;;;;;1.80;1.70;;;25.90;99.90;;;;;;8290821;28;20427;-87
2021/09/15 12:59:29;;;;;;;5.93;1.33;;;25.90;99.90;;;;;;8315632;28;20187;-88
2021/09/15 13:03:41;;;;;;;4.80;2.50;;;25.70;99.90;;;;;;8329238;28;20479;-79
2021/09/15 13:07:41;;;;;;;4.27;2.73;;;25.30;99.90;;;;;;8292307;28;20408;-82
2021/09/15 13:11:42;;;;;;;7.20;3.20;;;24.50;99.90;;;;;;8289432;28;20772;-79
2021/09/15 13:15:44;;;;;;;10.27;3.10;;;23.70;99.90;;;;;;8282324;28;20202;-80
2021/09/15 13:19:45;;;;;;;2.73;1.13;;;23.20;99.90;;;;;;8298110;28;20184;-78
2021/09/15 13:23:46;;;;;;;2.80;2.10;;;22.80;99.90;;;;;;3491469;28;10002093;-80
2021/09/15 13:27:47;;;;;;;2.40;1.47;;;22.30;99.90;;;;;;8298428;28;20184;-82
2021/09/15 13:31:47;;;;;;;1.87;1.30;;;22.10;99.90;;;;;;8296385;28;20236;-82
2021/09/15 13:35:48;;;;;;;1.57;1.10;;;21.90;99.90;;;;;;8280969;28;20273;-81
2021/09/15 13:39:49;;;;;;;1.60;1.50;;;21.80;99.90;;;;;;8302922;28;20194;-81
2021/09/15 13:43:49;;;;;;;1.50;1.40;;;21.80;99.90;;;;;;8306292;28;20204;-80
2021/09/15 13:47:50;;;;;;;1.77;1.67;;;21.80;99.90;;;;;;8304075;28;20195;-82
2021/09/15 13:51:51;;;;;;;4.10;2.00;;;21.80;99.90;;;;;;8306832;28;20240;-82
2021/09/15 13:55:52;;;;;;;6.20;2.10;;;21.90;99.90;;;;;;8316635;28;20188;-82
2021/09/15 13:59:53;;;;;;;3.30;3.03;;;21.90;99.90;;;;;;8314732;28;20440;-87
2021/09/15 14:03:53;;;;;;;4.23;2.70;;;22.00;99.90;;;;;;8321346;28;20278;-79
2021/09/15 14:07:57;;;;;;;5.30;3.77;;;22.10;99.90;;;;;;8296376;28;20582;-82
2021/09/15 14:11:57;;;;;;;3.30;3.10;;;22.20;99.90;;;;;;8300446;28;20212;-82
2021/09/15 14:15:58;;;;;;;4.93;2.23;;;22.30;99.90;;;;;;8296675;28;20457;-81
2021/09/15 14:19:59;;;;;;;4.60;3.53;;;22.50;99.90;;;;;;8301301;28;20199;-82
2021/09/15 14:24:00;;;;;;;3.40;3.10;;;22.50;99.90;;;;;;8292288;28;20213;-81
2021/09/15 14:28:01;;;;;;;4.57;3.67;;;22.50;99.90;;;;;;8283759;28;20483;-81
2021/09/15 14:32:05;;;;;;;6.63;4.13;;;22.50;99.90;;;;;;8304751;28;20436;-79
2021/09/15 14:36:06;;;;;;;7.43;4.23;;;22.50;99.90;;;;;;8301979;28;20393;-81
2021/09/15 14:40:07;;;;;;;5.97;4.13;;;22.50;99.90;;;;;;8311983;28;21271;-80
2021/09/15 14:44:08;;;;;;;4.57;3.63;;;22.50;99.90;;;;;;8302864;28;20458;-81
2021/09/15 14:48:11;;;;;;;8.77;4.80;;;22.60;99.90;;;;;;8300348;28;20535;-82
2021/09/15 14:52:12;;;;;;;8.03;4.20;;;22.70;99.90;;;;;;8259512;28;20297;-84
2021/09/15 14:56:13;;;;;;;7.20;5.03;;;22.80;99.90;;;;;;8267418;28;20453;-84
2021/09/15 15:00:14;;;;;;;9.90;6.60;;;23.00;99.90;;;;;;8238762;28;20181;-82
2021/09/15 15:04:14;;;;;;;13.50;6.13;;;23.20;99.90;;;;;;8268124;28;20221;-81
2021/09/15 15:08:15;;;;;;;8.70;5.83;;;23.30;99.90;;;;;;8269916;28;20190;-83
2021/09/15 15:12:15;;;;;;;8.10;7.30;;;23.30;99.90;;;;;;8255166;28;20511;-81
2021/09/15 15:16:16;;;;;;;7.73;6.53;;;23.40;99.90;;;;;;8264068;28;20172;-83
2021/09/15 15:20:18;;;;;;;8.90;6.23;;;23.50;99.90;;;;;;8281021;28;20181;-83
2021/09/15 15:24:19;;;;;;;6.57;5.93;;;23.60;99.90;;;;;;8260370;28;20711;-83
2021/09/15 15:28:20;;;;;;;7.80;6.27;;;23.80;99.90;;;;;;8266770;28;20485;-83
2021/09/15 15:32:20;;;;;;;11.17;6.93;;;24.10;99.90;;;;;;8260393;28;20193;-86
2021/09/15 15:36:21;;;;;;;9.73;7.90;;;24.40;99.90;;;;;;8257894;28;20772;-88
2021/09/15 15:40:22;;;;;;;11.90;8.27;;;24.70;99.90;;;;;;8247025;28;20682;-86
2021/09/15 15:44:23;;;;;;;12.07;9.60;;;24.80;99.90;;;;;;8264308;28;20212;-85
2021/09/15 15:48:23;;;;;;;22.30;10.90;;;25.00;99.90;;;;;;8265126;28;20447;-87
2021/09/15 15:52:25;;;;;;;17.70;11.40;;;25.00;99.90;;;;;;8299945;28;20721;-85
2021/09/15 15:56:26;;;;;;;14.93;11.20;;;25.00;99.90;;;;;;8298215;28;20185;-89
2021/09/15 16:00:27;;;;;;;18.53;12.30;;;24.90;99.90;;;;;;8287284;28;20432;-82
2021/09/15 16:04:30;;;;;;;13.50;10.60;;;24.70;99.90;;;;;;8309841;28;20239;-83
2021/09/15 16:08:31;;;;;;;24.33;12.30;;;24.60;99.90;;;;;;8303705;28;20230;-84
2021/09/15 16:12:31;;;;;;;19.07;12.77;;;24.40;99.90;;;;;;8308392;28;21007;-85
2021/09/15 16:16:33;;;;;;;21.00;13.33;;;24.20;99.90;;;;;;8293224;28;20191;-87
2021/09/15 16:20:34;;;;;;;68.57;42.70;;;23.90;99.90;;;;;;8301802;28;20214;-81
2021/09/15 16:24:34;;;;;;;80.40;48.20;;;23.60;99.90;;;;;;8300210;28;20461;-82
2021/09/15 16:28:35;;;;;;;95.40;53.37;;;23.30;99.90;;;;;;8291811;28;20193;-84
2021/09/15 16:32:36;;;;;;;92.93;51.80;;;23.00;99.90;;;;;;8314612;28;20185;-85
2021/09/15 16:36:36;;;;;;;101.90;57.03;;;22.70;99.90;;;;;;8311010;28;20180;-83
2021/09/15 16:40:37;;;;;;;96.03;54.87;;;22.50;99.90;;;;;;8296418;28;20223;-86
2021/09/15 16:44:40;;;;;;;110.30;59.10;;;22.20;99.90;;;;;;8290667;28;20212;-86
2021/09/15 16:48:40;;;;;;;103.33;59.00;;;21.90;99.90;;;;;;8314264;28;20312;-85
2021/09/15 16:52:41;;;;;;;113.00;58.83;;;21.70;99.90;;;;;;8242833;28;21095;-86
2021/09/15 16:56:42;;;;;;;115.30;60.27;;;21.60;99.90;;;;;;8237150;28;20184;-83
2021/09/15 17:00:42;;;;;;;110.23;60.77;;;21.50;99.90;;;;;;8282531;28;20196;-83
2021/09/15 17:04:43;;;;;;;107.80;58.00;;;21.50;99.90;;;;;;8267612;28;20222;-82
2021/09/15 17:08:44;;;;;;;88.43;52.90;;;21.40;99.90;;;;;;8265842;28;20225;-84
2021/09/15 17:12:46;;;;;;;86.13;53.90;;;21.30;99.90;;;;;;8244671;28;20191;-84
2021/09/15 17:16:47;;;;;;;73.47;48.87;;;21.30;99.90;;;;;;8259654;28;20192;-82
2021/09/15 17:20:47;;;;;;;77.07;50.67;;;21.20;99.90;;;;;;8249471;28;20445;-86
2021/09/15 17:24:48;;;;;;;72.77;50.17;;;21.20;99.90;;;;;;8273506;28;20219;-84
2021/09/15 17:28:49;;;;;;;75.90;49.57;;;21.10;99.90;;;;;;8283396;28;20184;-84
2021/09/15 17:32:51;;;;;;;76.47;52.00;;;21.00;99.90;;;;;;8260934;28;20175;-84
2021/09/15 17:36:53;;;;;;;72.73;49.30;;;21.00;99.90;;;;;;8265237;28;20448;-86
2021/09/15 17:40:54;;;;;;;76.50;49.50;;;20.90;99.90;;;;;;8261594;28;20439;-85
2021/09/15 17:44:54;;;;;;;58.93;43.20;;;20.90;99.90;;;;;;8274969;28;20480;-83
2021/09/15 17:48:55;;;;;;;46.67;35.70;;;20.80;99.90;;;;;;8248877;28;20334;-84
2021/09/15 17:52:55;;;;;;;47.40;35.70;;;20.70;99.90;;;;;;8283045;28;20193;-84
2021/09/15 17:56:56;;;;;;;45.80;35.53;;;20.70;99.90;;;;;;8287824;28;20219;-84
2021/09/15 18:00:57;;;;;;;45.43;33.03;;;20.60;99.90;;;;;;8296028;28;20195;-84
2021/09/15 18:04:57;;;;;;;41.10;31.70;;;20.60;99.90;;;;;;8301650;28;20797;-86
2021/09/15 18:08:58;;;;;;;43.22;37.08;;;20.50;99.90;;;;;;8286030;28;20439;-83
2021/09/15 18:12:58;;;;;;;44.83;35.10;;;20.50;99.90;;;;;;8286876;28;20246;-86
2021/09/15 18:16:59;;;;;;;47.00;36.40;;;20.50;99.90;;;;;;8290030;28;20216;-85
2021/09/15 18:21:00;;;;;;;49.13;33.57;;;20.50;99.90;;;;;;8274927;28;20195;-84
2021/09/15 18:25:01;;;;;;;45.00;32.90;;;20.40;99.90;;;;;;8299538;28;20269;-86
2021/09/15 18:29:03;;;;;;;42.43;30.83;;;20.40;99.90;;;;;;8302100;28;20181;-82
2021/09/15 18:33:03;;;;;;;46.07;34.27;;;20.40;99.90;;;;;;8286798;28;20195;-85
2021/09/15 18:37:04;;;;;;;47.07;32.23;;;20.30;99.90;;;;;;8289105;28;20436;-82
2021/09/15 18:41:05;;;;;;;48.80;34.50;;;20.30;99.90;;;;;;8292026;28;20880;-86
2021/09/15 18:45:06;;;;;;;43.30;31.40;;;20.30;99.90;;;;;;8311668;28;20691;-85
2021/09/15 18:49:07;;;;;;;48.90;35.60;;;20.30;99.90;;;;;;8292266;28;20301;-85
2021/09/15 18:53:08;;;;;;;46.37;34.50;;;20.30;99.90;;;;;;8300923;28;20496;-86
2021/09/15 18:57:09;;;;;;;48.00;34.80;;;20.30;99.90;;;;;;8311932;28;20436;-87
2021/09/15 19:01:12;;;;;;;53.13;34.43;;;20.30;99.90;;;;;;8271121;28;20283;-83
2021/09/15 19:05:12;;;;;;;51.83;36.00;;;20.30;99.90;;;;;;8284925;28;20570;-82
2021/09/15 19:09:13;;;;;;;54.13;36.60;;;20.30;99.90;;;;;;8287704;28;20611;-84
2021/09/15 19:13:18;;;;;;;54.60;37.07;;;20.30;99.90;;;;;;8290405;28;20482;-82
2021/09/15 19:17:19;;;;;;;53.40;38.23;;;20.30;99.90;;;;;;8288132;28;20432;-83
2021/09/15 19:21:20;;;;;;;50.87;38.77;;;20.30;99.90;;;;;;8274132;28;20444;-87
2021/09/15 19:25:20;;;;;;;52.63;38.87;;;20.30;99.90;;;;;;8317383;28;20209;-91
2021/09/15 19:29:21;;;;;;;53.63;32.53;;;20.30;99.90;;;;;;8310389;28;20182;-88
2021/09/15 19:33:22;;;;;;;49.17;33.53;;;20.30;99.90;;;;;;8312012;28;20257;-82
2021/09/15 19:37:23;;;;;;;37.03;27.50;;;20.30;99.90;;;;;;8324560;28;20183;-88
2021/09/15 19:41:23;;;;;;;37.93;27.60;;;20.30;99.90;;;;;;8310671;28;20161;-88
2021/09/15 19:45:24;;;;;;;40.87;28.43;;;20.30;99.90;;;;;;8289979;28;20243;-86
2021/09/15 19:49:25;;;;;;;48.33;26.90;;;20.30;99.90;;;;;;8277279;28;20241;-86
2021/09/15 19:53:26;;;;;;;31.90;24.97;;;20.30;99.90;;;;;;8275290;28;20907;-83
2021/09/15 19:57:26;;;;;;;51.07;22.70;;;20.30;99.90;;;;;;8274786;28;20439;-84
2021/09/15 20:01:27;;;;;;;27.17;22.03;;;20.30;99.90;;;;;;8275775;28;20207;-84
2021/09/15 20:05:28;;;;;;;22.73;17.77;;;20.20;99.90;;;;;;8295773;28;20298;-85
2021/09/15 20:09:28;;;;;;;28.13;18.03;;;20.20;99.90;;;;;;8298432;28;20219;-85
2021/09/15 20:13:29;;;;;;;27.70;15.60;;;20.20;99.90;;;;;;8283717;28;20272;-84
2021/09/15 20:17:30;;;;;;;19.53;13.37;;;20.10;99.90;;;;;;8295651;28;20180;-83
2021/09/15 20:21:32;;;;;;;17.83;13.80;;;20.10;99.90;;;;;;8295560;28;20188;-81
2021/09/15 20:25:33;;;;;;;20.50;15.60;;;20.10;99.90;;;;;;8292577;28;20213;-82
2021/09/15 20:29:34;;;;;;;27.23;14.70;;;20.10;99.90;;;;;;8314580;28;20431;-80
2021/09/15 20:33:36;;;;;;;20.07;13.30;;;20.00;99.90;;;;;;8295031;28;20181;-81
2021/09/15 20:37:37;;;;;;;18.40;13.57;;;20.00;99.90;;;;;;8314521;28;20521;-83
2021/09/15 20:41:38;;;;;;;18.93;13.83;;;20.00;99.90;;;;;;8296287;28;20820;-83
2021/09/15 20:45:44;;;;;;;22.10;15.10;;;20.00;99.90;;;;;;8303274;28;20241;-80
2021/09/15 20:49:45;;;;;;;23.13;14.77;;;20.00;99.90;;;;;;8308007;28;20227;-82
2021/09/15 20:53:46;;;;;;;18.10;13.80;;;20.00;99.90;;;;;;8299877;28;20451;-82
2021/09/15 20:57:47;;;;;;;19.63;14.57;;;20.00;99.90;;;;;;8301739;28;20188;-80
2021/09/15 21:01:47;;;;;;;21.70;13.90;;;20.00;99.90;;;;;;8286518;28;20523;-86